Terminal Aerodrome Forecast
Issued by NWS

Home | Current Version | Previous Version | Text Only | Print | Product List | Glossary On
Versions: 1 2 3 4 5 6 7 8 9 10 11 12 13 14 15 16 17 18 19 20 21 22 23 24 25 26 27 28 29 30 31 32
000
FTUS45 KGJT 291139
TAFRIL
TAF
KRIL 291139Z 2912/3012 VRB03KT 3SM -SN BR SCT020 OVC040
      TEMPO 2912/2916 2SM -SN BR OVC020
     FM292000 VRB03KT 3SM -SN BKN025 OVC040
     FM300400 VRB03KT P6SM VCSH SCT030 OVC050=

USA.gov is the U.S. government's official web portal to all federal, state and local government web resources and services.